KTVL/TVL METAR and TAF weather

Enter ICAO airport designator
Station Type Date Time Source
KTVL METAR 2021/07/29 01:53 UTC NOAA

KTVL 290153Z AUTO 03006KT 10SM CLR 25/06 A3030 RMK AO2 SLP212 T02500056


Station Type Date Time Source
KTVL Decoded METAR 2021/07/29 01:53 UTC NOAA

SOUTH LAKE TAHOE AIRPORT, CA, United States (KTVL) 38-53N 119-59W 1925M
Jul 28, 2021 - 09:53 PM EDT / 2021.07.29 0153 UTC
Wind: from the NNE (030 degrees) at 7 MPH (6 KT):0
Visibility: 10 mile(s):0
Sky conditions: clear
Temperature: 77.0 F (25.0 C)
Dew Point: 42.1 F (5.6 C)
Relative Humidity: 28%
Pressure (altimeter): 30.3 in. Hg (1026 hPa)
ob: KTVL 290153Z AUTO 03006KT 10SM CLR 25/06 A3030 RMK AO2 SLP212 T02500056
cycle: 2

Station Type Date Time Source
KTVL TAF 2021/07/28 18:22 UTC NOAA

TAF KTVL 281720Z 2818/2918 03007KT P6SM SCT060
FM282100 VRB06KT P6SM VCTS SCT060CB BKN120
TEMPO 2821/2823 VRB15G25KT -TSRA BKN060CB
FM290300 19004KT P6SM FEW120 SCT200

Example: see airport list